Time;durP1;ratioP1;P1;durP2;ratioP2;P2;SDS_P1;SDS_P2;PMS_P1;PMS_P2;Temp;Humidity;BMP_temperature;BMP_pressure;BME280_temperature;BME280_humidity;BME280_pressure;Samples;Min_cycle;Max_cycle;Signal;HPM_P1;HPM_P2
2022/12/21 00:02:16;;;;;;;117.97;23.30;;;;;;;;;;5039547;28;20054;-80
2022/12/21 00:04:44;;;;;;;283.30;25.63;;;;;;;;;;5043195;28;20050;-81
2022/12/21 00:07:14;;;;;;;335.20;26.75;;;;;;;;;;5044185;28;22099;-80
2022/12/21 00:09:41;;;;;;;365.63;28.23;;;;;;;;;;5053353;28;20049;-81
2022/12/21 00:12:09;;;;;;;439.75;30.30;;;;;;;;;;5044106;28;20061;-81
2022/12/21 00:14:36;;;;;;;310.50;27.15;;;;;;;;;;5041598;28;20046;-80
2022/12/21 00:17:06;;;;;;;297.27;24.38;;;;;;;;;;5042527;28;20710;-80
2022/12/21 00:19:34;;;;;;;292.90;26.73;;;;;;;;;;5041152;28;20065;-80
2022/12/21 00:22:01;;;;;;;515.67;27.80;;;;;;;;;;5042853;28;20050;-80
2022/12/21 00:24:29;;;;;;;378.83;24.48;;;;;;;;;;5039278;28;20073;-80
2022/12/21 00:26:56;;;;;;;499.30;25.20;;;;;;;;;;5039267;28;20034;-80
2022/12/21 00:29:23;;;;;;;340.20;25.42;;;;;;;;;;5043680;28;20049;-81
2022/12/21 00:31:51;;;;;;;281.73;26.90;;;;;;;;;;5037177;28;20050;-80
2022/12/21 00:34:19;;;;;;;414.38;28.10;;;;;;;;;;5038553;28;20049;-80
2022/12/21 00:36:46;;;;;;;140.45;21.70;;;;;;;;;;5039337;28;21679;-80
2022/12/21 00:39:14;;;;;;;203.35;25.33;;;;;;;;;;5035670;28;20162;-80
2022/12/21 00:41:41;;;;;;;303.90;25.52;;;;;;;;;;5039452;28;20060;-80
2022/12/21 00:44:09;;;;;;;316.13;24.50;;;;;;;;;;5038224;28;20106;-80
2022/12/21 00:46:36;;;;;;;224.07;23.58;;;;;;;;;;5040269;28;20078;-80
2022/12/21 00:49:05;;;;;;;223.38;24.75;;;;;;;;;;5041994;28;20049;-80
2022/12/21 00:51:36;;;;;;;116.43;22.42;;;;;;;;;;5040357;28;20052;-80
2022/12/21 00:54:04;;;;;;;272.77;25.42;;;;;;;;;;5038775;28;20069;-80
2022/12/21 00:56:31;;;;;;;457.75;28.95;;;;;;;;;;5041296;28;20050;-80
2022/12/21 00:58:58;;;;;;;124.75;21.30;;;;;;;;;;5042262;28;20026;-80
2022/12/21 01:01:32;;;;;;;347.35;25.50;;;;;;;;;;5041672;28;20104;-80
2022/12/21 01:04:02;;;;;;;242.23;24.23;;;;;;;;;;5040356;28;20069;-80
2022/12/21 01:06:35;;;;;;;157.35;21.48;;;;;;;;;;5037150;28;20065;-80
2022/12/21 01:09:07;;;;;;;128.57;23.10;;;;;;;;;;5040573;28;20054;-80
2022/12/21 01:11:34;;;;;;;539.92;27.05;;;;;;;;;;5054590;28;20046;-80
2022/12/21 01:14:02;;;;;;;552.70;28.27;;;;;;;;;;5033156;28;20050;-80
2022/12/21 01:16:30;;;;;;;697.70;31.45;;;;;;;;;;5054814;28;20050;-80
2022/12/21 01:19:01;;;;;;;683.38;30.75;;;;;;;;;;5040410;28;20780;-80
2022/12/21 01:21:30;;;;;;;248.40;18.55;;;;;;;;;;5038816;28;20177;-80
2022/12/21 01:23:58;;;;;;;269.60;16.98;;;;;;;;;;5039086;28;20046;-80
2022/12/21 01:26:26;;;;;;;229.68;23.92;;;;;;;;;;5034920;28;20045;-80
2022/12/21 01:28:53;;;;;;;220.25;23.13;;;;;;;;;;5030994;28;20058;-80
2022/12/21 01:31:21;;;;;;;409.17;27.60;;;;;;;;;;5039944;28;20046;-80
2022/12/21 01:33:48;;;;;;;411.10;25.55;;;;;;;;;;5039736;28;20101;-80
2022/12/21 01:36:16;;;;;;;484.65;26.05;;;;;;;;;;5039036;28;20049;-80
2022/12/21 01:38:46;;;;;;;414.40;23.63;;;;;;;;;;5037387;28;20042;-81
2022/12/21 01:41:15;;;;;;;278.00;22.92;;;;;;;;;;5038629;28;20050;-80
2022/12/21 01:43:54;;;;;;;312.02;22.23;;;;;;;;;;5039795;28;20056;-80
2022/12/21 01:46:31;;;;;;;259.02;22.15;;;;;;;;;;5037575;28;20136;-80
2022/12/21 01:49:04;;;;;;;465.88;26.48;;;;;;;;;;5036384;28;20062;-81
2022/12/21 01:51:34;;;;;;;401.35;23.30;;;;;;;;;;5039200;28;20137;-80
2022/12/21 01:54:03;;;;;;;498.17;26.00;;;;;;;;;;5038323;28;20060;-80
2022/12/21 01:56:35;;;;;;;339.48;23.23;;;;;;;;;;5038618;28;20133;-80
2022/12/21 01:59:06;;;;;;;265.90;21.45;;;;;;;;;;5039976;28;20473;-81
2022/12/21 02:01:35;;;;;;;342.55;23.10;;;;;;;;;;5039784;28;20057;-80
2022/12/21 02:04:03;;;;;;;269.38;20.75;;;;;;;;;;5039979;28;20062;-80
2022/12/21 02:06:33;;;;;;;546.53;28.52;;;;;;;;;;5041139;28;20042;-80
2022/12/21 02:09:01;;;;;;;143.70;17.40;;;;;;;;;;5034875;28;20065;-80
2022/12/21 02:11:28;;;;;;;197.18;21.50;;;;;;;;;;5039621;28;20049;-81
2022/12/21 02:13:56;;;;;;;263.48;23.10;;;;;;;;;;5034777;28;20057;-80
2022/12/21 02:16:30;;;;;;;264.73;23.02;;;;;;;;;;5036620;28;20056;-80
2022/12/21 02:19:13;;;;;;;195.20;21.00;;;;;;;;;;5038406;28;20675;-80
2022/12/21 02:21:44;;;;;;;91.32;15.82;;;;;;;;;;5039944;28;20853;-80
2022/12/21 02:24:29;;;;;;;390.58;24.67;;;;;;;;;;5037342;28;20758;-80
2022/12/21 02:26:57;;;;;;;355.60;24.23;;;;;;;;;;5036595;28;20073;-80
2022/12/21 02:29:36;;;;;;;266.05;22.25;;;;;;;;;;5034552;28;20102;-80
2022/12/21 02:32:14;;;;;;;299.60;22.08;;;;;;;;;;5036873;28;20050;-80
2022/12/21 02:34:48;;;;;;;185.48;17.95;;;;;;;;;;5039671;28;20507;-80
2022/12/21 02:37:17;;;;;;;385.58;19.48;;;;;;;;;;5040001;28;20050;-80
2022/12/21 02:39:57;;;;;;;125.82;13.85;;;;;;;;;;5034958;28;20101;-80
2022/12/21 02:45:21;;;;;;;167.30;19.50;;;;;;;;;;5030704;28;20934;-80
2022/12/21 02:48:15;;;;;;;253.85;21.35;;;;;;;;;;5041932;28;20045;-80
2022/12/21 02:50:42;;;;;;;;;;;;;;;;;;5055183;28;20404;-80
2022/12/21 02:53:15;;;;;;;232.40;20.00;;;;;;;;;;5036432;28;43666;-80
2022/12/21 02:55:44;;;;;;;215.65;20.23;;;;;;;;;;5041793;28;20046;-80
2022/12/21 02:58:13;;;;;;;279.15;22.50;;;;;;;;;;5039595;28;20038;-80
2022/12/21 03:00:50;;;;;;;204.73;19.92;;;;;;;;;;5040222;28;20040;-80
2022/12/21 03:06:19;;;;;;;319.90;22.98;;;;;;;;;;5040330;28;20042;-80
2022/12/21 03:08:46;;;;;;;258.92;21.88;;;;;;;;;;5042518;28;20088;-80
2022/12/21 03:11:14;;;;;;;193.63;20.58;;;;;;;;;;5042243;28;20193;-80
2022/12/21 03:13:53;;;;;;;250.55;20.92;;;;;;;;;;5041199;28;20042;-80
2022/12/21 03:16:29;;;;;;;237.82;20.73;;;;;;;;;;5040276;28;20042;-80
2022/12/21 03:19:05;;;;;;;191.45;18.55;;;;;;;;;;5038068;28;20076;-80
2022/12/21 03:21:33;;;;;;;275.08;22.10;;;;;;;;;;5041402;28;20038;-81
2022/12/21 03:24:12;;;;;;;294.02;22.52;;;;;;;;;;5037147;28;20145;-81
2022/12/21 03:26:59;;;;;;;202.43;20.17;;;;;;;;;;5040436;28;20053;-80
2022/12/21 03:29:34;;;;;;;314.02;22.67;;;;;;;;;;5038182;28;20929;-80
2022/12/21 03:32:12;;;;;;;155.10;19.83;;;;;;;;;;5041164;28;20054;-80
2022/12/21 03:34:43;;;;;;;257.15;20.95;;;;;;;;;;5033173;28;20064;-81
2022/12/21 03:37:23;;;;;;;262.45;19.52;;;;;;;;;;5036482;28;20049;-80
2022/12/21 03:39:53;;;;;;;194.00;19.33;;;;;;;;;;5042373;28;20052;-80
2022/12/21 03:42:31;;;;;;;175.60;18.83;;;;;;;;;;5041702;28;20142;-80
2022/12/21 03:45:01;;;;;;;254.02;22.23;;;;;;;;;;5039085;28;20049;-80
2022/12/21 03:47:33;;;;;;;211.98;19.35;;;;;;;;;;5039566;28;20526;-80
2022/12/21 03:50:02;;;;;;;;;;;;;;;;;;5041298;28;20046;-80
2022/12/21 03:52:34;;;;;;;170.05;19.52;;;;;;;;;;5037991;28;42467;-80
2022/12/21 03:55:10;;;;;;;264.92;19.85;;;;;;;;;;5029429;28;20876;-80
2022/12/21 03:57:37;;;;;;;156.10;19.27;;;;;;;;;;5038306;28;20049;-80
2022/12/21 04:00:05;;;;;;;261.80;20.80;;;;;;;;;;5037228;28;20046;-80
2022/12/21 04:02:35;;;;;;;235.23;21.25;;;;;;;;;;5037080;28;20056;-80
2022/12/21 04:05:03;;;;;;;245.73;22.38;;;;;;;;;;5036883;28;20050;-80
2022/12/21 04:07:32;;;;;;;245.70;23.08;;;;;;;;;;5036646;28;20042;-80
2022/12/21 04:10:00;;;;;;;278.33;23.80;;;;;;;;;;5038153;28;20068;-80
2022/12/21 04:12:38;;;;;;;397.88;25.33;;;;;;;;;;5038773;28;20034;-80
2022/12/21 04:15:16;;;;;;;275.67;23.73;;;;;;;;;;5050512;28;20057;-80
2022/12/21 04:17:45;;;;;;;296.98;21.40;;;;;;;;;;5033776;28;20054;-80
2022/12/21 04:20:18;;;;;;;276.50;19.88;;;;;;;;;;5052307;28;20054;-81
2022/12/21 04:28:26;;;;;;;331.23;24.58;;;;;;;;;;5039963;28;20054;-80
2022/12/21 04:31:13;;;;;;;297.80;25.63;;;;;;;;;;5038770;28;20070;-80
2022/12/21 04:33:40;;;;;;;233.40;25.85;;;;;;;;;;5036314;28;20065;-80
2022/12/21 04:38:54;;;;;;;505.58;31.40;;;;;;;;;;5038133;28;20046;-80
2022/12/21 04:41:21;;;;;;;352.65;26.13;;;;;;;;;;5039042;28;20953;-80
2022/12/21 04:43:49;;;;;;;396.27;29.77;;;;;;;;;;5033068;28;20054;-80
2022/12/21 04:46:18;;;;;;;350.92;28.00;;;;;;;;;;5034237;28;20114;-80
2022/12/21 04:48:46;;;;;;;456.60;30.33;;;;;;;;;;5037996;28;20048;-80
2022/12/21 04:51:21;;;;;;;477.77;30.70;;;;;;;;;;5035855;28;20049;-80
2022/12/21 04:53:48;;;;;;;418.77;30.60;;;;;;;;;;5031120;28;20077;-80
2022/12/21 04:56:16;;;;;;;308.13;26.63;;;;;;;;;;5046653;28;20077;-80
2022/12/21 04:58:44;;;;;;;414.77;29.35;;;;;;;;;;5038168;28;20148;-80
2022/12/21 05:01:19;;;;;;;355.08;25.63;;;;;;;;;;5031889;28;20136;-80
2022/12/21 05:03:46;;;;;;;629.72;34.08;;;;;;;;;;5038964;28;20037;-80
2022/12/21 05:06:15;;;;;;;578.55;32.72;;;;;;;;;;5037647;28;20080;-80
2022/12/21 05:08:42;;;;;;;642.42;35.17;;;;;;;;;;5036191;28;20042;-80
2022/12/21 05:11:10;;;;;;;669.47;36.75;;;;;;;;;;5031625;28;20065;-80
2022/12/21 05:13:37;;;;;;;584.95;31.70;;;;;;;;;;5027574;28;20046;-80
2022/12/21 05:16:06;;;;;;;579.08;31.60;;;;;;;;;;5034677;28;20049;-80
2022/12/21 05:18:36;;;;;;;680.78;37.88;;;;;;;;;;5031718;28;20081;-80
2022/12/21 05:21:04;;;;;;;693.10;36.95;;;;;;;;;;5035439;28;20065;-80
2022/12/21 05:23:37;;;;;;;541.05;33.58;;;;;;;;;;5033630;28;20049;-80
2022/12/21 05:26:05;;;;;;;574.55;34.75;;;;;;;;;;5030354;28;20053;-80
2022/12/21 05:28:42;;;;;;;438.15;30.98;;;;;;;;;;5030471;28;20117;-80
2022/12/21 05:31:09;;;;;;;637.33;36.15;;;;;;;;;;5033399;28;20106;-80
2022/12/21 05:33:39;;;;;;;790.90;41.38;;;;;;;;;;5036058;28;20143;-80
2022/12/21 05:36:07;;;;;;;566.35;34.00;;;;;;;;;;5035906;28;20133;-80
2022/12/21 05:38:37;;;;;;;576.17;33.33;;;;;;;;;;5035510;28;20908;-80
2022/12/21 05:41:07;;;;;;;605.22;36.63;;;;;;;;;;5035667;28;20054;-80
2022/12/21 05:43:41;;;;;;;734.83;40.40;;;;;;;;;;5035089;28;20077;-80
2022/12/21 05:46:10;;;;;;;548.80;34.42;;;;;;;;;;5036308;28;20077;-80
2022/12/21 05:48:47;;;;;;;538.42;34.10;;;;;;;;;;5045095;28;20728;-80
2022/12/21 05:51:17;;;;;;;760.88;40.42;;;;;;;;;;5033920;28;20902;-80
2022/12/21 05:53:45;;;;;;;617.30;38.20;;;;;;;;;;5033783;28;20859;-80
2022/12/21 05:56:12;;;;;;;668.15;39.00;;;;;;;;;;5034674;28;20057;-80
2022/12/21 05:58:40;;;;;;;609.47;35.53;;;;;;;;;;5034851;28;20128;-80
2022/12/21 06:01:09;;;;;;;670.10;36.22;;;;;;;;;;5032052;28;20054;-80
2022/12/21 06:03:36;;;;;;;436.08;33.80;;;;;;;;;;5032282;28;20101;-80
2022/12/21 06:06:05;;;;;;;404.70;32.40;;;;;;;;;;5029080;28;20092;-80
2022/12/21 06:08:32;;;;;;;381.02;31.23;;;;;;;;;;5045213;28;20046;-80
2022/12/21 06:11:04;;;;;;;235.35;27.15;;;;;;;;;;5029750;28;20042;-81
2022/12/21 06:13:32;;;;;;;559.25;34.58;;;;;;;;;;5029573;28;20030;-80
2022/12/21 06:16:06;;;;;;;345.10;28.85;;;;;;;;;;5030663;28;20052;-81
2022/12/21 06:18:34;;;;;;;446.30;31.08;;;;;;;;;;5035853;28;20057;-81
2022/12/21 06:21:01;;;;;;;272.98;28.77;;;;;;;;;;5033188;28;20773;-80
2022/12/21 06:23:37;;;;;;;320.05;28.52;;;;;;;;;;5038700;28;20046;-81
2022/12/21 06:26:19;;;;;;;316.33;28.35;;;;;;;;;;5047239;28;20073;-80
2022/12/21 06:28:51;;;;;;;301.00;27.88;;;;;;;;;;5038495;28;20047;-81
2022/12/21 06:31:20;;;;;;;350.52;26.98;;;;;;;;;;5041111;28;20050;-81
2022/12/21 06:33:48;;;;;;;216.57;27.92;;;;;;;;;;5039364;28;20054;-81
2022/12/21 06:36:16;;;;;;;163.98;26.55;;;;;;;;;;5039546;28;20109;-80
2022/12/21 06:38:43;;;;;;;188.65;26.83;;;;;;;;;;5036919;28;20058;-81
2022/12/21 06:41:12;;;;;;;207.85;27.38;;;;;;;;;;5033907;28;20089;-81
2022/12/21 06:43:40;;;;;;;237.60;29.30;;;;;;;;;;5037195;28;20082;-81
2022/12/21 06:46:09;;;;;;;296.70;28.25;;;;;;;;;;5039125;28;20065;-81
2022/12/21 06:48:37;;;;;;;148.63;28.73;;;;;;;;;;5041557;28;20050;-81
2022/12/21 06:51:13;;;;;;;133.40;28.80;;;;;;;;;;5037680;28;20149;-80
2022/12/21 06:53:42;;;;;;;182.30;29.98;;;;;;;;;;5039365;28;20037;-81
2022/12/21 06:56:13;;;;;;;112.65;27.33;;;;;;;;;;5037625;28;21655;-80
2022/12/21 06:59:02;;;;;;;153.27;31.15;;;;;;;;;;5043182;28;20052;-80
2022/12/21 07:01:38;;;;;;;149.88;30.15;;;;;;;;;;5057161;28;20038;-81
2022/12/21 07:04:05;;;;;;;283.75;32.08;;;;;;;;;;5040881;28;20034;-80
2022/12/21 07:06:33;;;;;;;246.20;31.15;;;;;;;;;;5042688;28;20826;-80
2022/12/21 07:09:03;;;;;;;181.02;31.70;;;;;;;;;;5035141;28;20049;-81
2022/12/21 07:11:35;;;;;;;166.77;30.73;;;;;;;;;;5036706;28;20066;-80
2022/12/21 07:14:03;;;;;;;191.25;32.25;;;;;;;;;;5043129;28;20053;-80
2022/12/21 07:16:33;;;;;;;131.02;30.92;;;;;;;;;;5039894;28;20104;-80
2022/12/21 07:19:04;;;;;;;269.70;34.10;;;;;;;;;;5057556;28;20077;-80
2022/12/21 07:21:36;;;;;;;210.02;30.05;;;;;;;;;;5044538;28;21010;-80
2022/12/21 07:24:05;;;;;;;220.00;30.30;;;;;;;;;;5045656;28;20054;-80
2022/12/21 07:26:45;;;;;;;129.68;31.13;;;;;;;;;;5052029;28;20053;-80
2022/12/21 07:29:13;;;;;;;174.77;30.33;;;;;;;;;;5044080;28;20056;-80
2022/12/21 07:31:40;;;;;;;226.05;31.25;;;;;;;;;;5043036;28;20042;-80
2022/12/21 07:34:07;;;;;;;121.32;28.65;;;;;;;;;;5040340;28;20085;-80
2022/12/21 07:36:35;;;;;;;194.63;31.05;;;;;;;;;;5043680;28;20056;-80
2022/12/21 07:39:03;;;;;;;207.55;31.85;;;;;;;;;;5041967;28;20856;-80
2022/12/21 07:41:36;;;;;;;266.02;32.05;;;;;;;;;;5043615;28;20049;-80
2022/12/21 07:44:04;;;;;;;210.82;31.95;;;;;;;;;;5041076;28;20034;-80
2022/12/21 07:46:36;;;;;;;146.00;31.85;;;;;;;;;;5042893;28;20110;-81
2022/12/21 07:49:09;;;;;;;255.80;34.25;;;;;;;;;;5041020;28;20116;-80
2022/12/21 07:51:38;;;;;;;227.18;32.63;;;;;;;;;;5044596;28;20054;-81
2022/12/21 07:54:05;;;;;;;179.77;33.10;;;;;;;;;;5046421;28;20057;-80
2022/12/21 07:56:39;;;;;;;174.30;32.05;;;;;;;;;;5041934;28;20116;-81
2022/12/21 07:59:09;;;;;;;147.40;32.22;;;;;;;;;;5040893;28;20146;-80
2022/12/21 08:01:43;;;;;;;170.68;30.75;;;;;;;;;;5039668;28;20053;-80
2022/12/21 08:04:14;;;;;;;172.63;30.23;;;;;;;;;;5040214;28;20034;-80
2022/12/21 08:06:49;;;;;;;128.77;32.47;;;;;;;;;;5042463;28;20057;-79
2022/12/21 08:09:16;;;;;;;125.60;30.77;;;;;;;;;;5027074;28;20088;-80
2022/12/21 08:11:43;;;;;;;117.88;30.25;;;;;;;;;;5039185;28;20058;-80
2022/12/21 08:14:11;;;;;;;169.52;31.83;;;;;;;;;;5046597;28;20049;-79
2022/12/21 08:16:41;;;;;;;149.05;32.13;;;;;;;;;;5042179;28;20038;-80
2022/12/21 08:19:08;;;;;;;112.65;31.92;;;;;;;;;;5032550;28;20049;-80
2022/12/21 08:21:35;;;;;;;160.30;31.30;;;;;;;;;;5041293;28;20080;-80
2022/12/21 08:24:03;;;;;;;149.85;32.45;;;;;;;;;;5047591;28;20037;-80
2022/12/21 08:26:31;;;;;;;111.75;32.70;;;;;;;;;;5050023;28;20094;-81
2022/12/21 08:28:59;;;;;;;117.70;31.13;;;;;;;;;;5043734;28;20052;-80
2022/12/21 08:31:28;;;;;;;188.77;33.40;;;;;;;;;;5041678;28;20058;-80
2022/12/21 08:33:55;;;;;;;96.13;28.95;;;;;;;;;;5043290;28;20045;-80
2022/12/21 08:36:23;;;;;;;127.43;33.15;;;;;;;;;;5034464;28;20382;-80
2022/12/21 08:38:52;;;;;;;164.75;33.25;;;;;;;;;;5041837;28;20062;-80
2022/12/21 08:41:37;;;;;;;228.70;35.65;;;;;;;;;;5039238;28;20093;-80
2022/12/21 08:44:05;;;;;;;156.75;30.95;;;;;;;;;;5041736;28;20042;-80
2022/12/21 08:46:33;;;;;;;102.13;31.40;;;;;;;;;;5044394;28;20038;-80
2022/12/21 08:49:02;;;;;;;144.63;31.10;;;;;;;;;;5038087;28;20852;-80
2022/12/21 08:51:29;;;;;;;124.25;30.83;;;;;;;;;;5036867;28;20042;-80
2022/12/21 08:53:57;;;;;;;156.95;31.25;;;;;;;;;;5036318;28;20098;-80
2022/12/21 08:56:24;;;;;;;124.88;31.52;;;;;;;;;;5041178;28;20100;-80
2022/12/21 08:58:52;;;;;;;109.13;29.35;;;;;;;;;;5041607;28;20042;-80
2022/12/21 09:01:20;;;;;;;93.88;29.15;;;;;;;;;;5028291;28;20046;-80
2022/12/21 09:03:47;;;;;;;136.30;31.67;;;;;;;;;;5041542;28;20038;-80
2022/12/21 09:06:15;;;;;;;105.10;29.48;;;;;;;;;;5038235;28;20046;-80
2022/12/21 09:08:43;;;;;;;165.50;29.02;;;;;;;;;;5039206;28;20086;-80
2022/12/21 09:11:12;;;;;;;151.02;30.75;;;;;;;;;;5047207;28;20058;-80
2022/12/21 09:13:40;;;;;;;110.20;29.50;;;;;;;;;;5041192;28;20030;-80
2022/12/21 09:16:14;;;;;;;131.88;29.00;;;;;;;;;;5041272;28;20054;-80
2022/12/21 09:18:42;;;;;;;127.85;28.45;;;;;;;;;;5035413;28;20038;-80
2022/12/21 09:21:09;;;;;;;121.50;27.92;;;;;;;;;;5033956;28;20042;-80
2022/12/21 09:23:37;;;;;;;88.15;27.75;;;;;;;;;;5041297;28;20046;-80
2022/12/21 09:26:05;;;;;;;92.20;26.13;;;;;;;;;;5039777;28;20046;-80
2022/12/21 09:28:33;;;;;;;74.20;24.60;;;;;;;;;;5038955;28;20141;-79
2022/12/21 09:31:09;;;;;;;69.68;25.33;;;;;;;;;;5037001;28;20046;-80
2022/12/21 09:33:37;;;;;;;90.47;26.27;;;;;;;;;;5040347;28;20038;-80
2022/12/21 09:36:04;;;;;;;117.55;25.52;;;;;;;;;;5038086;28;20050;-80
2022/12/21 09:38:33;;;;;;;93.03;25.85;;;;;;;;;;5038671;28;20050;-79
2022/12/21 09:41:06;;;;;;;79.85;25.63;;;;;;;;;;5034521;28;20049;-79
2022/12/21 09:43:46;;;;;;;93.68;27.77;;;;;;;;;;5040478;28;20037;-80
2022/12/21 09:46:14;;;;;;;115.28;25.35;;;;;;;;;;5035246;28;20054;-80
2022/12/21 09:48:44;;;;;;;75.43;25.35;;;;;;;;;;5027486;28;20050;-80
2022/12/21 09:51:21;;;;;;;79.30;25.45;;;;;;;;;;5035799;28;20050;-80
2022/12/21 09:53:58;;;;;;;94.57;24.40;;;;;;;;;;5040461;28;20030;-80
2022/12/21 09:56:27;;;;;;;72.45;24.75;;;;;;;;;;5035839;28;20054;-79
2022/12/21 09:58:55;;;;;;;67.00;23.15;;;;;;;;;;5037093;28;20069;-80
2022/12/21 10:01:25;;;;;;;60.97;25.05;;;;;;;;;;5042831;28;20538;-80
2022/12/21 10:04:11;;;;;;;119.45;26.38;;;;;;;;;;5043341;28;20046;-80
2022/12/21 10:07:01;;;;;;;65.90;25.30;;;;;;;;;;5040775;28;20042;-80
2022/12/21 10:09:47;;;;;;;84.07;25.92;;;;;;;;;;5042345;28;20053;-80
2022/12/21 10:12:27;;;;;;;63.55;23.88;;;;;;;;;;5052826;28;20042;-80
2022/12/21 10:15:10;;;;;;;84.63;23.30;;;;;;;;;;5039639;28;20054;-80
2022/12/21 10:17:42;;;;;;;64.60;21.95;;;;;;;;;;5039013;28;20053;-80
2022/12/21 10:20:18;;;;;;;52.00;19.65;;;;;;;;;;5039035;28;20042;-80
2022/12/21 10:22:47;;;;;;;57.00;21.17;;;;;;;;;;5031658;28;20042;-80
2022/12/21 10:25:19;;;;;;;52.67;19.65;;;;;;;;;;5038313;28;20458;-80
2022/12/21 10:27:46;;;;;;;46.30;19.60;;;;;;;;;;5040537;28;20077;-80
2022/12/21 10:30:14;;;;;;;45.08;18.02;;;;;;;;;;5038709;28;20061;-80
2022/12/21 10:32:45;;;;;;;48.42;16.85;;;;;;;;;;5041691;28;20054;-80
2022/12/21 10:35:16;;;;;;;59.20;16.92;;;;;;;;;;5041420;28;20050;-79
2022/12/21 10:37:47;;;;;;;51.45;16.85;;;;;;;;;;5040506;28;20081;-79
2022/12/21 10:40:15;;;;;;;46.42;15.98;;;;;;;;;;5044923;28;20069;-80
2022/12/21 10:42:44;;;;;;;55.58;15.75;;;;;;;;;;5043006;28;20662;-79
2022/12/21 10:45:12;;;;;;;50.05;16.85;;;;;;;;;;5068936;28;20083;-79
2022/12/21 10:47:44;;;;;;;55.33;18.67;;;;;;;;;;5044123;28;20830;-79
2022/12/21 10:50:14;;;;;;;48.70;17.15;;;;;;;;;;5042729;28;20041;-79
2022/12/21 10:52:47;;;;;;;54.35;17.75;;;;;;;;;;5048270;28;20049;-80
2022/12/21 10:55:18;;;;;;;46.75;17.67;;;;;;;;;;5057513;28;20046;-81
2022/12/21 10:57:45;;;;;;;54.03;19.33;;;;;;;;;;5045815;28;20042;-79
2022/12/21 11:00:21;;;;;;;50.55;18.40;;;;;;;;;;5044046;28;20061;-79
2022/12/21 11:02:49;;;;;;;58.88;18.90;;;;;;;;;;5042243;28;21143;-79
2022/12/21 11:05:33;;;;;;;54.13;19.90;;;;;;;;;;5034583;28;20043;-79
2022/12/21 11:08:14;;;;;;;60.10;21.05;;;;;;;;;;5046839;28;20042;-79
2022/12/21 11:10:51;;;;;;;54.58;20.60;;;;;;;;;;5042209;28;20049;-79
2022/12/21 11:13:22;;;;;;;54.78;20.38;;;;;;;;;;5044748;28;20069;-79
2022/12/21 11:15:53;;;;;;;55.20;19.75;;;;;;;;;;5040832;28;20050;-80
2022/12/21 11:18:36;;;;;;;47.90;19.40;;;;;;;;;;5038828;28;20045;-80
2022/12/21 11:21:05;;;;;;;53.85;20.02;;;;;;;;;;5052381;28;20050;-79
2022/12/21 11:23:33;;;;;;;50.63;19.73;;;;;;;;;;5045605;28;20045;-79
2022/12/21 11:26:00;;;;;;;48.55;20.58;;;;;;;;;;5041607;28;20467;-79
2022/12/21 11:28:28;;;;;;;58.67;21.73;;;;;;;;;;5032759;28;20088;-80
2022/12/21 11:31:02;;;;;;;55.60;22.63;;;;;;;;;;5035607;28;20060;-79
2022/12/21 11:33:33;;;;;;;59.70;25.80;;;;;;;;;;5048399;28;20041;-80
2022/12/21 11:36:13;;;;;;;52.97;24.45;;;;;;;;;;5049663;28;20058;-80
2022/12/21 11:38:41;;;;;;;62.88;24.77;;;;;;;;;;5042289;28;20105;-80
2022/12/21 11:41:20;;;;;;;63.75;26.58;;;;;;;;;;5051096;28;20048;-79
2022/12/21 11:43:49;;;;;;;67.40;26.92;;;;;;;;;;5044044;28;20050;-80
2022/12/21 11:46:25;;;;;;;64.72;25.60;;;;;;;;;;5046395;28;20057;-80
2022/12/21 11:49:24;;;;;;;69.00;26.05;;;;;;;;;;5044629;28;20960;-79
2022/12/21 11:52:07;;;;;;;58.38;25.10;;;;;;;;;;5038923;28;20050;-80
2022/12/21 11:54:58;;;;;;;60.88;26.25;;;;;;;;;;5047287;28;20129;-79
2022/12/21 11:57:28;;;;;;;49.47;24.48;;;;;;;;;;5051652;28;20050;-80
2022/12/21 12:00:06;;;;;;;57.65;25.15;;;;;;;;;;5046540;28;20049;-80
2022/12/21 12:03:12;;;;;;;61.35;25.83;;;;;;;;;;5044716;28;20061;-79
2022/12/21 12:05:58;;;;;;;50.83;24.33;;;;;;;;;;5046868;28;20069;-80
2022/12/21 12:08:28;;;;;;;58.63;25.90;;;;;;;;;;5049332;28;20046;-79
2022/12/21 12:11:02;;;;;;;53.25;24.30;;;;;;;;;;5045643;28;20050;-80
2022/12/21 12:13:43;;;;;;;54.85;24.67;;;;;;;;;;5046439;28;20114;-79
2022/12/21 12:16:30;;;;;;;55.10;23.63;;;;;;;;;;5041114;28;20897;-79
2022/12/21 12:19:14;;;;;;;51.22;22.75;;;;;;;;;;5045361;28;20053;-79
2022/12/21 12:21:41;;;;;;;54.78;22.02;;;;;;;;;;5042112;28;20046;-81
2022/12/21 12:24:15;;;;;;;52.90;22.55;;;;;;;;;;5045044;28;20060;-79
2022/12/21 12:26:45;;;;;;;53.63;22.38;;;;;;;;;;5039894;28;20053;-80
2022/12/21 12:29:13;;;;;;;52.13;23.38;;;;;;;;;;5048983;28;20062;-79
2022/12/21 12:31:53;;;;;;;52.22;22.40;;;;;;;;;;5045747;28;20086;-79
2022/12/21 12:34:36;;;;;;;54.72;22.88;;;;;;;;;;5041212;28;20113;-79
2022/12/21 12:37:06;;;;;;;53.70;22.48;;;;;;;;;;5045008;28;20030;-79
2022/12/21 12:39:46;;;;;;;62.05;23.70;;;;;;;;;;5042190;28;20098;-79
2022/12/21 12:42:13;;;;;;;;;;;;;;;;;;5046437;28;20052;-79
2022/12/21 12:44:52;;;;;;;47.20;20.80;;;;;;;;;;5044907;28;43832;-79
2022/12/21 12:47:42;;;;;;;47.45;21.00;;;;;;;;;;5050101;28;20030;-79
2022/12/21 12:50:19;;;;;;;44.22;20.60;;;;;;;;;;5046931;28;20042;-80
2022/12/21 12:52:55;;;;;;;39.85;19.67;;;;;;;;;;5043319;28;20117;-79
2022/12/21 12:55:40;;;;;;;38.63;20.00;;;;;;;;;;5038476;28;20153;-79
2022/12/21 12:58:22;;;;;;;39.65;20.20;;;;;;;;;;5044098;28;20897;-79
2022/12/21 13:01:09;;;;;;;47.55;20.23;;;;;;;;;;5041523;28;20050;-79
2022/12/21 13:03:58;;;;;;;44.17;19.38;;;;;;;;;;5043237;28;20050;-79
2022/12/21 13:06:37;;;;;;;44.08;20.30;;;;;;;;;;5041312;28;20050;-79
2022/12/21 13:09:14;;;;;;;49.53;20.17;;;;;;;;;;5045554;28;20069;-79
2022/12/21 13:11:46;;;;;;;47.67;19.70;;;;;;;;;;5038739;28;20113;-79
2022/12/21 13:14:28;;;;;;;35.33;18.07;;;;;;;;;;5043852;28;20049;-79
2022/12/21 13:17:07;;;;;;;39.10;17.90;;;;;;;;;;5040430;28;20049;-79
2022/12/21 13:19:35;;;;;;;36.90;19.13;;;;;;;;;;5037174;28;20042;-79
2022/12/21 13:22:05;;;;;;;46.78;18.25;;;;;;;;;;5042168;28;20038;-79
2022/12/21 13:24:40;;;;;;;40.40;17.75;;;;;;;;;;5035571;28;20061;-79
2022/12/21 13:27:09;;;;;;;38.53;17.05;;;;;;;;;;5039897;28;22525;-79
2022/12/21 13:29:49;;;;;;;37.97;17.10;;;;;;;;;;5035661;28;20061;-79
2022/12/21 13:32:19;;;;;;;35.97;16.50;;;;;;;;;;5046320;28;20049;-79
2022/12/21 13:34:54;;;;;;;37.95;15.60;;;;;;;;;;5036659;28;20081;-79
2022/12/21 13:37:23;;;;;;;37.03;17.55;;;;;;;;;;5041222;28;20042;-79
2022/12/21 13:40:03;;;;;;;30.80;14.95;;;;;;;;;;5038608;28;20046;-79
2022/12/21 13:42:40;;;;;;;37.40;15.93;;;;;;;;;;5041658;28;20046;-79
2022/12/21 13:45:19;;;;;;;34.47;15.82;;;;;;;;;;5040688;28;20069;-79
2022/12/21 13:47:48;;;;;;;34.53;15.20;;;;;;;;;;5041039;28;20050;-79
2022/12/21 13:50:15;;;;;;;37.95;15.50;;;;;;;;;;5043210;28;20106;-79
2022/12/21 13:52:52;;;;;;;32.63;14.40;;;;;;;;;;5044792;28;20057;-79
2022/12/21 13:55:28;;;;;;;25.15;12.95;;;;;;;;;;5045581;28;20058;-80
2022/12/21 13:58:05;;;;;;;28.17;13.85;;;;;;;;;;5050946;28;20176;-79
2022/12/21 14:00:38;;;;;;;28.92;14.10;;;;;;;;;;5046981;28;20111;-80
2022/12/21 14:03:35;;;;;;;22.55;14.45;;;;;;;;;;5034158;28;20120;-80
2022/12/21 14:06:12;;;;;;;33.88;14.43;;;;;;;;;;5044613;28;20050;-80
2022/12/21 14:09:02;;;;;;;35.00;17.00;;;;;;;;;;5041850;28;20046;-79
2022/12/21 14:11:43;;;;;;;32.30;15.05;;;;;;;;;;5047309;28;20049;-80
2022/12/21 14:14:43;;;;;;;31.90;16.48;;;;;;;;;;5047562;28;20053;-80
2022/12/21 14:17:17;;;;;;;34.00;17.00;;;;;;;;;;5044956;28;20046;-80
2022/12/21 14:19:53;;;;;;;41.55;17.52;;;;;;;;;;5044911;28;20096;-79
2022/12/21 14:22:32;;;;;;;34.53;16.98;;;;;;;;;;5035602;28;20049;-80
2022/12/21 14:25:03;;;;;;;36.30;17.77;;;;;;;;;;5041770;28;20046;-80
2022/12/21 14:27:33;;;;;;;38.70;17.60;;;;;;;;;;5045917;28;20055;-81
2022/12/21 14:30:13;;;;;;;35.03;17.23;;;;;;;;;;5040393;28;20061;-80
2022/12/21 14:32:41;;;;;;;34.08;16.52;;;;;;;;;;5039391;28;20038;-80
2022/12/21 14:35:31;;;;;;;32.67;16.65;;;;;;;;;;5036540;28;20045;-81
2022/12/21 14:38:26;;;;;;;37.58;17.13;;;;;;;;;;5036533;28;20101;-80
2022/12/21 14:41:00;;;;;;;39.80;17.80;;;;;;;;;;5057782;28;20065;-81
2022/12/21 14:43:28;;;;;;;36.67;16.63;;;;;;;;;;5035588;28;20038;-80
2022/12/21 14:45:55;;;;;;;36.83;16.77;;;;;;;;;;5041479;28;20034;-81
2022/12/21 14:48:24;;;;;;;35.85;17.48;;;;;;;;;;5041345;28;20061;-81
2022/12/21 14:51:03;;;;;;;31.80;16.80;;;;;;;;;;5044841;28;20054;-81
2022/12/21 14:53:35;;;;;;;32.65;15.82;;;;;;;;;;5044050;28;20042;-80
2022/12/21 14:56:08;;;;;;;33.60;15.40;;;;;;;;;;5044005;28;20060;-80